AUR3BM EGBB-EGJB
Flight info
| Callsign | AUR3BM |
|---|---|
| Flight time | 0h 43m |
| Altitude | 27000 |
| Route | CPT Y321 NUBRI/N0387F290 Y321 PEPIS/N0373F280 Q41 SAM N63 LELNA |
| Aircraft | E195/M-SDE3GILORVW/S |
Departure
| Time | 2026-04-22 16:40 |
|---|---|
| Airport | Birmingham Airport (EGBB) |
Arrival
| Time | 2026-04-22 17:23 |
|---|---|
| Airport | Guernsey Airport (EGJB) |
| Time | Latitude | Longitude | Altitude | Speed | Heading |
|---|---|---|---|---|---|
| 2026-04-22 16:24 | 52.45454 | -1.73421 | 322 ft | 0 kts | 146° |
| 2026-04-22 16:30 | 52.45466 | -1.73434 | 321 ft | 2 kts | 146° |
| 2026-04-22 16:31 | 52.45480 | -1.73449 | 320 ft | 2 kts | 146° |
| 2026-04-22 16:31 | 52.45493 | -1.73465 | 321 ft | 2 kts | 146° |
| 2026-04-22 16:31 | 52.45507 | -1.73480 | 321 ft | 2 kts | 152° |
| 2026-04-22 16:31 | 52.45521 | -1.73477 | 322 ft | 2 kts | 237° |
| 2026-04-22 16:32 | 52.45524 | -1.73469 | 322 ft | 0 kts | 236° |
| 2026-04-22 16:34 | 52.45521 | -1.73477 | 322 ft | 2 kts | 236° |
| 2026-04-22 16:34 | 52.45506 | -1.73512 | 322 ft | 5 kts | 236° |
| 2026-04-22 16:34 | 52.45480 | -1.73574 | 322 ft | 8 kts | 236° |
| 2026-04-22 16:35 | 52.45444 | -1.73661 | 321 ft | 11 kts | 236° |
| 2026-04-22 16:35 | 52.45398 | -1.73772 | 322 ft | 13 kts | 235° |
| 2026-04-22 16:35 | 52.45343 | -1.73904 | 322 ft | 15 kts | 236° |
| 2026-04-22 16:35 | 52.45314 | -1.74047 | 322 ft | 13 kts | 292° |
| 2026-04-22 16:36 | 52.45360 | -1.74195 | 320 ft | 16 kts | 297° |
| 2026-04-22 16:36 | 52.45411 | -1.74363 | 322 ft | 18 kts | 296° |
| 2026-04-22 16:36 | 52.45471 | -1.74555 | 322 ft | 20 kts | 304° |
| 2026-04-22 16:36 | 52.45587 | -1.74697 | 319 ft | 23 kts | 326° |
| 2026-04-22 16:37 | 52.45735 | -1.74861 | 309 ft | 28 kts | 326° |
| 2026-04-22 16:37 | 52.45891 | -1.75036 | 305 ft | 26 kts | 326° |
| 2026-04-22 16:37 | 52.46044 | -1.75206 | 303 ft | 28 kts | 326° |
| 2026-04-22 16:37 | 52.46209 | -1.75387 | 301 ft | 29 kts | 326° |
| 2026-04-22 16:38 | 52.46382 | -1.75581 | 300 ft | 31 kts | 326° |
| 2026-04-22 16:38 | 52.46532 | -1.75748 | 305 ft | 20 kts | 326° |
| 2026-04-22 16:38 | 52.46628 | -1.75859 | 305 ft | 15 kts | 311° |
| 2026-04-22 16:38 | 52.46606 | -1.75985 | 306 ft | 12 kts | 236° |
| 2026-04-22 16:39 | 52.46556 | -1.76084 | 304 ft | 9 kts | 200° |
| 2026-04-22 16:39 | 52.46524 | -1.76068 | 306 ft | 1 kts | 146° |
| 2026-04-22 16:39 | 52.46466 | -1.76003 | 309 ft | 41 kts | 146° |
| 2026-04-22 16:39 | 52.45978 | -1.75456 | 313 ft | 125 kts | 145° |
| 2026-04-22 16:40 | 52.45086 | -1.74504 | 621 ft | 174 kts | 140° |
| 2026-04-22 16:40 | 52.44010 | -1.73342 | 1635 ft | 198 kts | 140° |
| 2026-04-22 16:40 | 52.41743 | -1.70665 | 4413 ft | 205 kts | 143° |
| 2026-04-22 16:41 | 52.40392 | -1.69791 | 5482 ft | 203 kts | 159° |
| 2026-04-22 16:41 | 52.39031 | -1.69227 | 5805 ft | 209 kts | 161° |
| 2026-04-22 16:41 | 52.37603 | -1.68638 | 6085 ft | 209 kts | 158° |
| 2026-04-22 16:41 | 52.36240 | -1.67686 | 6125 ft | 213 kts | 148° |
| 2026-04-22 16:42 | 52.34953 | -1.66492 | 6132 ft | 212 kts | 146° |
| 2026-04-22 16:42 | 52.33567 | -1.65352 | 6180 ft | 237 kts | 153° |
| 2026-04-22 16:42 | 52.32031 | -1.64343 | 6223 ft | 234 kts | 155° |
| 2026-04-22 16:42 | 52.30477 | -1.63360 | 6267 ft | 246 kts | 154° |
| 2026-04-22 16:43 | 52.28886 | -1.62332 | 6503 ft | 249 kts | 154° |
| 2026-04-22 16:43 | 52.27249 | -1.61259 | 6915 ft | 255 kts | 154° |
| 2026-04-22 16:43 | 52.25591 | -1.60165 | 7268 ft | 257 kts | 154° |
| 2026-04-22 16:43 | 52.23914 | -1.59073 | 8033 ft | 261 kts | 156° |
| 2026-04-22 16:44 | 52.22165 | -1.58162 | 8868 ft | 266 kts | 160° |
| 2026-04-22 16:44 | 52.20363 | -1.57329 | 9731 ft | 271 kts | 160° |
| 2026-04-22 16:44 | 52.18565 | -1.56462 | 10587 ft | 275 kts | 159° |
| 2026-04-22 16:44 | 52.16722 | -1.55548 | 11413 ft | 278 kts | 159° |
| 2026-04-22 16:45 | 52.14856 | -1.54613 | 12249 ft | 282 kts | 160° |
| 2026-04-22 16:45 | 52.12958 | -1.53661 | 13159 ft | 286 kts | 160° |
| 2026-04-22 16:45 | 52.11063 | -1.52710 | 14049 ft | 291 kts | 160° |
| 2026-04-22 16:45 | 52.09098 | -1.51714 | 14876 ft | 296 kts | 160° |
| 2026-04-22 16:46 | 52.07107 | -1.50706 | 15712 ft | 302 kts | 160° |
| 2026-04-22 16:46 | 52.05076 | -1.49683 | 16540 ft | 307 kts | 161° |
| 2026-04-22 16:46 | 52.03038 | -1.48666 | 17350 ft | 313 kts | 161° |
| 2026-04-22 16:46 | 52.00933 | -1.47612 | 18095 ft | 319 kts | 161° |
| 2026-04-22 16:47 | 51.98784 | -1.46535 | 18873 ft | 325 kts | 162° |
| 2026-04-22 16:47 | 51.96615 | -1.45451 | 19445 ft | 334 kts | 162° |
| 2026-04-22 16:47 | 51.95121 | -1.44705 | 19815 ft | 341 kts | 163° |
| 2026-04-22 16:47 | 51.92025 | -1.43162 | 20574 ft | 353 kts | 164° |
| 2026-04-22 16:48 | 51.89646 | -1.41976 | 21205 ft | 360 kts | 164° |
| 2026-04-22 16:48 | 51.87259 | -1.40782 | 21876 ft | 365 kts | 165° |
| 2026-04-22 16:48 | 51.84812 | -1.39568 | 22496 ft | 371 kts | 165° |
| 2026-04-22 16:48 | 51.82308 | -1.38324 | 23085 ft | 379 kts | 165° |
| 2026-04-22 16:49 | 51.79764 | -1.37063 | 23668 ft | 386 kts | 166° |
| 2026-04-22 16:49 | 51.77170 | -1.35776 | 24224 ft | 392 kts | 166° |
| 2026-04-22 16:49 | 51.74548 | -1.34476 | 24854 ft | 395 kts | 166° |
| 2026-04-22 16:49 | 51.71903 | -1.33166 | 25485 ft | 398 kts | 167° |
| 2026-04-22 16:50 | 51.69274 | -1.31866 | 26083 ft | 402 kts | 167° |
| 2026-04-22 16:50 | 51.66590 | -1.30540 | 26672 ft | 405 kts | 167° |
| 2026-04-22 16:50 | 51.63877 | -1.29203 | 27237 ft | 409 kts | 167° |
| 2026-04-22 16:50 | 51.61127 | -1.27852 | 27336 ft | 414 kts | 167° |
| 2026-04-22 16:51 | 51.58380 | -1.26499 | 27324 ft | 413 kts | 167° |
| 2026-04-22 16:51 | 51.57507 | -1.26068 | 27320 ft | 412 kts | 167° |
| 2026-04-22 16:51 | 51.54687 | -1.24681 | 27330 ft | 411 kts | 167° |
| 2026-04-22 16:51 | 51.51956 | -1.23343 | 27332 ft | 411 kts | 167° |
| 2026-04-22 16:52 | 51.48267 | -1.22016 | 27330 ft | 411 kts | 182° |
| 2026-04-22 16:52 | 51.46310 | -1.21990 | 27356 ft | 419 kts | 188° |
| 2026-04-22 16:52 | 51.43372 | -1.22281 | 27413 ft | 434 kts | 190° |
| 2026-04-22 16:52 | 51.40289 | -1.22626 | 27313 ft | 453 kts | 189° |
| 2026-04-22 16:53 | 51.37109 | -1.22923 | 27274 ft | 462 kts | 188° |
| 2026-04-22 16:53 | 51.33875 | -1.23190 | 27277 ft | 466 kts | 188° |
| 2026-04-22 16:53 | 51.30669 | -1.23441 | 27272 ft | 467 kts | 188° |
| 2026-04-22 16:53 | 51.27426 | -1.23712 | 27281 ft | 466 kts | 188° |
| 2026-04-22 16:54 | 51.24176 | -1.23986 | 27286 ft | 466 kts | 188° |
| 2026-04-22 16:54 | 51.21972 | -1.24173 | 27280 ft | 466 kts | 188° |
| 2026-04-22 16:54 | 51.18768 | -1.24721 | 27278 ft | 459 kts | 197° |
| 2026-04-22 16:54 | 51.15657 | -1.25899 | 27278 ft | 457 kts | 201° |
| 2026-04-22 16:55 | 51.12592 | -1.27246 | 27284 ft | 456 kts | 201° |
| 2026-04-22 16:55 | 51.09530 | -1.28575 | 27286 ft | 456 kts | 200° |
| 2026-04-22 16:55 | 51.06492 | -1.29857 | 27276 ft | 457 kts | 200° |
| 2026-04-22 16:55 | 51.03439 | -1.31135 | 27291 ft | 456 kts | 200° |
| 2026-04-22 16:56 | 51.00362 | -1.32417 | 27282 ft | 456 kts | 200° |
| 2026-04-22 16:56 | 50.97751 | -1.33499 | 27294 ft | 456 kts | 200° |
| 2026-04-22 16:56 | 50.94787 | -1.35025 | 27309 ft | 448 kts | 209° |
| 2026-04-22 16:56 | 50.91975 | -1.37145 | 27291 ft | 446 kts | 213° |
| 2026-04-22 16:57 | 50.89209 | -1.39403 | 27288 ft | 445 kts | 213° |
| 2026-04-22 16:57 | 50.86452 | -1.41640 | 27292 ft | 445 kts | 213° |
| 2026-04-22 16:57 | 50.83687 | -1.43861 | 27275 ft | 445 kts | 213° |
| 2026-04-22 16:57 | 50.80950 | -1.46053 | 27265 ft | 445 kts | 212° |
| 2026-04-22 16:58 | 50.78178 | -1.48260 | 27260 ft | 445 kts | 212° |
| 2026-04-22 16:58 | 50.75404 | -1.50460 | 27255 ft | 445 kts | 212° |
| 2026-04-22 16:58 | 50.72639 | -1.52656 | 27260 ft | 445 kts | 212° |
| 2026-04-22 16:58 | 50.69874 | -1.54845 | 27259 ft | 444 kts | 212° |
| 2026-04-22 16:59 | 50.67137 | -1.57012 | 27259 ft | 444 kts | 212° |
| 2026-04-22 16:59 | 50.64371 | -1.59203 | 27262 ft | 444 kts | 212° |
| 2026-04-22 16:59 | 50.61603 | -1.61386 | 27255 ft | 444 kts | 212° |
| 2026-04-22 16:59 | 50.58838 | -1.63567 | 27255 ft | 444 kts | 212° |
| 2026-04-22 17:00 | 50.56068 | -1.65747 | 27252 ft | 443 kts | 212° |
| 2026-04-22 17:00 | 50.50578 | -1.70061 | 27249 ft | 443 kts | 212° |
| 2026-04-22 17:00 | 50.47797 | -1.72242 | 27248 ft | 443 kts | 212° |
| 2026-04-22 17:01 | 50.45073 | -1.74376 | 27246 ft | 443 kts | 212° |
| 2026-04-22 17:01 | 50.42309 | -1.76538 | 27240 ft | 442 kts | 212° |
| 2026-04-22 17:01 | 50.39540 | -1.78701 | 27240 ft | 442 kts | 212° |
| 2026-04-22 17:01 | 50.36782 | -1.80853 | 27245 ft | 442 kts | 212° |
| 2026-04-22 17:02 | 50.34050 | -1.82983 | 27241 ft | 442 kts | 212° |
| 2026-04-22 17:02 | 50.31300 | -1.85122 | 27241 ft | 442 kts | 212° |
| 2026-04-22 17:02 | 50.28545 | -1.87265 | 27258 ft | 441 kts | 212° |
| 2026-04-22 17:02 | 50.25796 | -1.89396 | 27226 ft | 432 kts | 212° |
| 2026-04-22 17:03 | 50.23187 | -1.91403 | 27193 ft | 414 kts | 212° |
| 2026-04-22 17:03 | 50.20635 | -1.93375 | 27230 ft | 405 kts | 212° |
| 2026-04-22 17:03 | 50.18092 | -1.95352 | 27233 ft | 406 kts | 212° |
| 2026-04-22 17:03 | 50.15561 | -1.97313 | 27234 ft | 406 kts | 212° |
| 2026-04-22 17:04 | 50.13049 | -1.99254 | 27233 ft | 406 kts | 212° |
| 2026-04-22 17:04 | 50.10519 | -2.01204 | 27230 ft | 406 kts | 212° |
| 2026-04-22 17:04 | 50.07976 | -2.03162 | 27233 ft | 406 kts | 212° |
| 2026-04-22 17:04 | 50.05439 | -2.05113 | 27231 ft | 406 kts | 212° |
| 2026-04-22 17:05 | 50.02935 | -2.07035 | 27225 ft | 406 kts | 212° |
| 2026-04-22 17:05 | 50.00405 | -2.08975 | 27219 ft | 406 kts | 212° |
| 2026-04-22 17:05 | 49.97974 | -2.11135 | 26253 ft | 397 kts | 224° |
| 2026-04-22 17:05 | 49.96076 | -2.14147 | 25078 ft | 385 kts | 234° |
| 2026-04-22 17:06 | 49.94385 | -2.17278 | 23866 ft | 379 kts | 235° |
| 2026-04-22 17:06 | 49.92694 | -2.20390 | 22382 ft | 375 kts | 234° |
| 2026-04-22 17:06 | 49.90961 | -2.23452 | 20853 ft | 373 kts | 233° |
| 2026-04-22 17:06 | 49.89256 | -2.26406 | 19328 ft | 372 kts | 232° |
| 2026-04-22 17:07 | 49.87533 | -2.29397 | 18055 ft | 366 kts | 232° |
| 2026-04-22 17:07 | 49.85889 | -2.32235 | 17735 ft | 348 kts | 232° |
| 2026-04-22 17:07 | 49.84286 | -2.35016 | 17291 ft | 343 kts | 232° |
| 2026-04-22 17:07 | 49.82706 | -2.37751 | 16890 ft | 341 kts | 232° |
| 2026-04-22 17:08 | 49.81154 | -2.40445 | 16483 ft | 340 kts | 232° |
| 2026-04-22 17:08 | 49.79740 | -2.42904 | 16089 ft | 339 kts | 232° |
| 2026-04-22 17:08 | 49.78168 | -2.45617 | 15639 ft | 338 kts | 232° |
| 2026-04-22 17:08 | 49.76604 | -2.48333 | 15190 ft | 337 kts | 231° |
| 2026-04-22 17:09 | 49.75059 | -2.50998 | 14744 ft | 332 kts | 231° |
| 2026-04-22 17:09 | 49.73524 | -2.53633 | 14305 ft | 326 kts | 230° |
| 2026-04-22 17:09 | 49.72046 | -2.56157 | 13818 ft | 307 kts | 230° |
| 2026-04-22 17:09 | 49.70626 | -2.58614 | 13340 ft | 305 kts | 230° |
| 2026-04-22 17:10 | 49.69253 | -2.61014 | 13041 ft | 300 kts | 230° |
| 2026-04-22 17:10 | 49.67887 | -2.63421 | 12842 ft | 296 kts | 230° |
| 2026-04-22 17:10 | 49.66525 | -2.65837 | 12566 ft | 300 kts | 230° |
| 2026-04-22 17:10 | 49.65176 | -2.68245 | 12234 ft | 294 kts | 230° |
| 2026-04-22 17:11 | 49.63846 | -2.70632 | 11831 ft | 291 kts | 230° |
| 2026-04-22 17:11 | 49.62541 | -2.72993 | 11451 ft | 283 kts | 230° |
| 2026-04-22 17:11 | 49.61312 | -2.75234 | 11021 ft | 270 kts | 230° |
| 2026-04-22 17:11 | 49.60130 | -2.77415 | 10599 ft | 260 kts | 230° |
| 2026-04-22 17:12 | 49.58995 | -2.79534 | 10185 ft | 251 kts | 230° |
| 2026-04-22 17:12 | 49.57918 | -2.81567 | 9851 ft | 248 kts | 230° |
| 2026-04-22 17:12 | 49.56840 | -2.83621 | 9474 ft | 244 kts | 230° |
| 2026-04-22 17:12 | 49.55774 | -2.85677 | 9144 ft | 248 kts | 230° |
| 2026-04-22 17:13 | 49.54700 | -2.87793 | 8820 ft | 253 kts | 234° |
| 2026-04-22 17:13 | 49.53982 | -2.90267 | 8480 ft | 254 kts | 251° |
| 2026-04-22 17:13 | 49.53419 | -2.92863 | 8155 ft | 255 kts | 250° |
| 2026-04-22 17:13 | 49.52854 | -2.95427 | 7827 ft | 256 kts | 250° |
| 2026-04-22 17:14 | 49.52288 | -2.98018 | 7534 ft | 252 kts | 250° |
| 2026-04-22 17:14 | 49.51747 | -3.00509 | 7435 ft | 234 kts | 250° |
| 2026-04-22 17:14 | 49.51249 | -3.02837 | 7255 ft | 226 kts | 250° |
| 2026-04-22 17:14 | 49.50682 | -3.05069 | 6954 ft | 220 kts | 235° |
| 2026-04-22 17:15 | 49.50020 | -3.06203 | 6766 ft | 211 kts | 211° |
| 2026-04-22 17:15 | 49.48270 | -3.06786 | 6403 ft | 189 kts | 158° |
| 2026-04-22 17:15 | 49.47271 | -3.05694 | 6225 ft | 174 kts | 121° |
| 2026-04-22 17:15 | 49.46645 | -3.04110 | 6060 ft | 174 kts | 120° |
| 2026-04-22 17:16 | 49.45987 | -3.02537 | 5884 ft | 175 kts | 120° |
| 2026-04-22 17:16 | 49.45385 | -3.00917 | 5708 ft | 173 kts | 113° |
| 2026-04-22 17:16 | 49.44882 | -2.99236 | 5530 ft | 172 kts | 115° |
| 2026-04-22 17:16 | 49.44333 | -2.97638 | 5354 ft | 170 kts | 116° |
| 2026-04-22 17:17 | 49.43789 | -2.96045 | 5175 ft | 168 kts | 115° |
| 2026-04-22 17:17 | 49.43263 | -2.94450 | 5002 ft | 167 kts | 116° |
| 2026-04-22 17:17 | 49.42729 | -2.92861 | 4813 ft | 166 kts | 115° |
| 2026-04-22 17:17 | 49.42515 | -2.91141 | 4627 ft | 168 kts | 88° |
| 2026-04-22 17:18 | 49.42654 | -2.89381 | 4450 ft | 167 kts | 88° |
| 2026-04-22 17:18 | 49.42687 | -2.87609 | 4270 ft | 164 kts | 92° |
| 2026-04-22 17:18 | 49.42719 | -2.85838 | 4053 ft | 167 kts | 89° |
| 2026-04-22 17:18 | 49.42788 | -2.84079 | 3801 ft | 166 kts | 89° |
| 2026-04-22 17:19 | 49.42896 | -2.80577 | 3255 ft | 161 kts | 89° |
| 2026-04-22 17:19 | 49.43000 | -2.77199 | 2734 ft | 155 kts | 89° |
| 2026-04-22 17:20 | 49.43097 | -2.74022 | 2241 ft | 138 kts | 88° |
| 2026-04-22 17:20 | 49.43174 | -2.71398 | 1847 ft | 108 kts | 87° |
| 2026-04-22 17:21 | 49.43209 | -2.70288 | 1684 ft | 100 kts | 87° |
| 2026-04-22 17:21 | 49.43273 | -2.68157 | 1375 ft | 102 kts | 86° |
| 2026-04-22 17:22 | 49.43336 | -2.65962 | 1013 ft | 107 kts | 86° |
| 2026-04-22 17:22 | 49.43366 | -2.64832 | 829 ft | 104 kts | 84° |
| 2026-04-22 17:22 | 49.43432 | -2.62497 | 523 ft | 110 kts | 84° |
| 2026-04-22 17:23 | 49.43465 | -2.61352 | 373 ft | 106 kts | 84° |
| 2026-04-22 17:23 | 49.43507 | -2.59808 | 342 ft | 40 kts | 87° |
| 2026-04-22 17:23 | 49.43516 | -2.59482 | 344 ft | 24 kts | 87° |
| 2026-04-22 17:24 | 49.43523 | -2.59283 | 347 ft | 14 kts | 87° |
| 2026-04-22 17:24 | 49.43501 | -2.59208 | 347 ft | 8 kts | 155° |
| 2026-04-22 17:24 | 49.43422 | -2.59197 | 339 ft | 12 kts | 178° |
| 2026-04-22 17:24 | 49.43372 | -2.59279 | 338 ft | 10 kts | 263° |
| 2026-04-22 17:25 | 49.43367 | -2.59396 | 335 ft | 12 kts | 267° |
| 2026-04-22 17:25 | 49.43365 | -2.59523 | 338 ft | 6 kts | 268° |
| 2026-04-22 17:25 | 49.43364 | -2.59538 | 335 ft | 3 kts | 268° |
| 2026-04-22 17:25 | 49.43353 | -2.59565 | 334 ft | 4 kts | 217° |
| 2026-04-22 17:26 | 49.43321 | -2.59567 | 338 ft | 6 kts | 177° |
| 2026-04-22 17:26 | 49.43283 | -2.59564 | 338 ft | 2 kts | 176° |
| 2026-04-22 17:26 | 49.43281 | -2.59564 | 338 ft | 0 kts | 176° |